sensor_id;sensor_type;location;lat;lon;timestamp;pressure;altitude;pressure_sealevel;temperature;humidity
51261;BME280;61705;46.228;24.812;2023-04-24T00:01:01;97165.22;;;6.33;76.54
51261;BME280;61705;46.228;24.812;2023-04-24T00:03:28;97150.72;;;6.46;76.41
51261;BME280;61705;46.228;24.812;2023-04-24T00:05:55;97167.53;;;6.40;76.27
51261;BME280;61705;46.228;24.812;2023-04-24T00:08:22;97158.72;;;6.43;76.36
51261;BME280;61705;46.228;24.812;2023-04-24T00:10:50;97143.75;;;6.45;76.51
51261;BME280;61705;46.228;24.812;2023-04-24T00:13:18;97156.97;;;6.42;76.58
51261;BME280;61705;46.228;24.812;2023-04-24T00:15:45;97146.47;;;6.42;76.63
51261;BME280;61705;46.228;24.812;2023-04-24T00:18:12;97146.56;;;6.40;76.65
51261;BME280;61705;46.228;24.812;2023-04-24T00:20:38;97141.81;;;6.50;75.98
51261;BME280;61705;46.228;24.812;2023-04-24T00:23:06;97138.09;;;6.56;75.80
51261;BME280;61705;46.228;24.812;2023-04-24T00:25:33;97136.09;;;6.39;75.84
51261;BME280;61705;46.228;24.812;2023-04-24T00:28:00;97134.56;;;6.33;75.87
51261;BME280;61705;46.228;24.812;2023-04-24T00:30:26;97144.97;;;6.36;75.69
51261;BME280;61705;46.228;24.812;2023-04-24T00:32:53;97139.09;;;6.30;75.92
51261;BME280;61705;46.228;24.812;2023-04-24T00:35:20;97137.75;;;6.18;76.96
51261;BME280;61705;46.228;24.812;2023-04-24T00:37:46;97140.56;;;6.13;77.38
51261;BME280;61705;46.228;24.812;2023-04-24T00:40:13;97138.97;;;6.09;77.74
51261;BME280;61705;46.228;24.812;2023-04-24T00:42:40;97133.84;;;6.05;78.14
51261;BME280;61705;46.228;24.812;2023-04-24T00:45:07;97127.66;;;6.07;77.87
51261;BME280;61705;46.228;24.812;2023-04-24T00:47:34;97125.25;;;6.01;78.06
51261;BME280;61705;46.228;24.812;2023-04-24T00:50:05;97126.06;;;6.03;78.19
51261;BME280;61705;46.228;24.812;2023-04-24T00:52:33;97113.34;;;6.16;77.05
51261;BME280;61705;46.228;24.812;2023-04-24T00:54:59;97116.63;;;6.23;76.73
51261;BME280;61705;46.228;24.812;2023-04-24T00:57:26;97114.25;;;6.15;76.55
51261;BME280;61705;46.228;24.812;2023-04-24T00:59:53;97113.75;;;6.05;76.95
51261;BME280;61705;46.228;24.812;2023-04-24T01:02:22;97117.47;;;5.98;77.76
51261;BME280;61705;46.228;24.812;2023-04-24T01:04:50;97113.75;;;6.05;77.98
51261;BME280;61705;46.228;24.812;2023-04-24T01:07:19;97108.03;;;5.94;78.43
51261;BME280;61705;46.228;24.812;2023-04-24T01:09:48;97114.38;;;5.87;78.77
51261;BME280;61705;46.228;24.812;2023-04-24T01:12:18;97105.88;;;5.80;78.69
51261;BME280;61705;46.228;24.812;2023-04-24T01:14:45;97111.31;;;5.74;79.15
51261;BME280;61705;46.228;24.812;2023-04-24T01:17:12;97108.94;;;5.68;79.01
51261;BME280;61705;46.228;24.812;2023-04-24T01:19:38;97104.38;;;5.73;78.36
51261;BME280;61705;46.228;24.812;2023-04-24T01:22:14;97098.19;;;5.76;79.04
51261;BME280;61705;46.228;24.812;2023-04-24T01:24:41;97093.31;;;5.65;79.71
51261;BME280;61705;46.228;24.812;2023-04-24T01:27:09;97099.44;;;5.64;79.25
51261;BME280;61705;46.228;24.812;2023-04-24T01:29:36;97092.50;;;5.63;79.54
51261;BME280;61705;46.228;24.812;2023-04-24T01:32:04;97100.38;;;5.63;79.40
51261;BME280;61705;46.228;24.812;2023-04-24T01:34:32;97087.56;;;5.54;79.68
51261;BME280;61705;46.228;24.812;2023-04-24T01:36:58;97081.47;;;5.53;80.07
51261;BME280;61705;46.228;24.812;2023-04-24T01:39:26;97080.69;;;5.51;80.10
51261;BME280;61705;46.228;24.812;2023-04-24T01:41:55;97084.16;;;5.52;80.37
51261;BME280;61705;46.228;24.812;2023-04-24T01:44:22;97086.03;;;5.48;78.94
51261;BME280;61705;46.228;24.812;2023-04-24T01:46:49;97078.66;;;5.34;80.05
51261;BME280;61705;46.228;24.812;2023-04-24T01:49:17;97086.25;;;5.17;81.09
51261;BME280;61705;46.228;24.812;2023-04-24T01:51:44;97077.56;;;5.15;81.69
51261;BME280;61705;46.228;24.812;2023-04-24T01:54:11;97082.25;;;5.05;80.98
51261;BME280;61705;46.228;24.812;2023-04-24T01:56:40;97078.00;;;5.03;80.35
51261;BME280;61705;46.228;24.812;2023-04-24T01:59:10;97076.44;;;4.95;80.52
51261;BME280;61705;46.228;24.812;2023-04-24T02:01:38;97079.13;;;4.94;80.93
51261;BME280;61705;46.228;24.812;2023-04-24T02:04:05;97069.31;;;5.01;81.54
51261;BME280;61705;46.228;24.812;2023-04-24T02:06:33;97065.75;;;5.03;81.70
51261;BME280;61705;46.228;24.812;2023-04-24T02:09:00;97061.47;;;5.01;81.66
51261;BME280;61705;46.228;24.812;2023-04-24T02:11:26;97064.25;;;4.96;82.14
51261;BME280;61705;46.228;24.812;2023-04-24T02:13:55;97059.09;;;4.93;82.32
51261;BME280;61705;46.228;24.812;2023-04-24T02:16:22;97058.94;;;4.97;82.10
51261;BME280;61705;46.228;24.812;2023-04-24T02:18:49;97062.47;;;4.96;81.98
51261;BME280;61705;46.228;24.812;2023-04-24T02:21:15;97060.00;;;4.92;81.99
51261;BME280;61705;46.228;24.812;2023-04-24T02:23:42;97055.66;;;4.91;82.08
51261;BME280;61705;46.228;24.812;2023-04-24T02:26:09;97065.13;;;4.95;81.57
51261;BME280;61705;46.228;24.812;2023-04-24T02:28:36;97062.59;;;4.92;81.60
51261;BME280;61705;46.228;24.812;2023-04-24T02:31:02;97053.88;;;4.93;81.41
51261;BME280;61705;46.228;24.812;2023-04-24T02:33:29;97050.69;;;4.83;82.04
51261;BME280;61705;46.228;24.812;2023-04-24T02:35:56;97054.41;;;4.76;82.23
51261;BME280;61705;46.228;24.812;2023-04-24T02:38:23;97061.44;;;4.74;82.17
51261;BME280;61705;46.228;24.812;2023-04-24T02:40:49;97053.75;;;4.69;82.44
51261;BME280;61705;46.228;24.812;2023-04-24T02:43:16;97054.56;;;4.71;82.00
51261;BME280;61705;46.228;24.812;2023-04-24T02:45:42;97053.56;;;4.75;81.74
51261;BME280;61705;46.228;24.812;2023-04-24T02:48:09;97054.63;;;4.70;82.69
51261;BME280;61705;46.228;24.812;2023-04-24T02:50:36;97058.91;;;4.72;82.52
51261;BME280;61705;46.228;24.812;2023-04-24T02:53:02;97056.56;;;4.63;82.71
51261;BME280;61705;46.228;24.812;2023-04-24T02:55:29;97058.06;;;4.72;82.06
51261;BME280;61705;46.228;24.812;2023-04-24T02:57:56;97051.84;;;4.74;81.94
51261;BME280;61705;46.228;24.812;2023-04-24T03:00:23;97060.88;;;4.64;82.10
51261;BME280;61705;46.228;24.812;2023-04-24T03:02:50;97060.44;;;4.51;81.91
51261;BME280;61705;46.228;24.812;2023-04-24T03:05:17;97051.19;;;4.40;82.40
51261;BME280;61705;46.228;24.812;2023-04-24T03:07:43;97049.53;;;4.37;83.05
51261;BME280;61705;46.228;24.812;2023-04-24T03:10:11;97054.22;;;4.27;83.68
51261;BME280;61705;46.228;24.812;2023-04-24T03:12:40;97055.25;;;4.22;84.01
51261;BME280;61705;46.228;24.812;2023-04-24T03:15:08;97052.72;;;4.19;84.12
51261;BME280;61705;46.228;24.812;2023-04-24T03:17:34;97058.03;;;4.16;84.10
51261;BME280;61705;46.228;24.812;2023-04-24T03:20:01;97054.34;;;4.23;84.14
51261;BME280;61705;46.228;24.812;2023-04-24T03:22:29;97056.00;;;4.25;84.27
51261;BME280;61705;46.228;24.812;2023-04-24T03:24:58;97063.75;;;4.28;84.05
51261;BME280;61705;46.228;24.812;2023-04-24T03:27:25;97063.63;;;4.33;83.71
51261;BME280;61705;46.228;24.812;2023-04-24T03:29:52;97066.38;;;4.28;83.64
51261;BME280;61705;46.228;24.812;2023-04-24T03:32:22;97067.16;;;4.31;83.58
51261;BME280;61705;46.228;24.812;2023-04-24T03:34:49;97067.41;;;4.23;83.71
51261;BME280;61705;46.228;24.812;2023-04-24T03:37:16;97069.91;;;4.27;83.68
51261;BME280;61705;46.228;24.812;2023-04-24T03:39:43;97068.72;;;4.38;83.38
51261;BME280;61705;46.228;24.812;2023-04-24T03:42:10;97072.94;;;4.42;83.09
51261;BME280;61705;46.228;24.812;2023-04-24T03:44:37;97071.97;;;4.44;82.76
51261;BME280;61705;46.228;24.812;2023-04-24T03:47:04;97071.75;;;4.52;82.61
51261;BME280;61705;46.228;24.812;2023-04-24T03:49:30;97069.94;;;4.54;82.43
51261;BME280;61705;46.228;24.812;2023-04-24T03:51:57;97071.59;;;4.57;82.36
51261;BME280;61705;46.228;24.812;2023-04-24T03:54:24;97066.44;;;4.55;81.94
51261;BME280;61705;46.228;24.812;2023-04-24T03:56:51;97071.84;;;4.49;82.29
51261;BME280;61705;46.228;24.812;2023-04-24T03:59:17;97068.97;;;4.58;81.69
51261;BME280;61705;46.228;24.812;2023-04-24T04:01:44;97073.03;;;4.67;81.36
51261;BME280;61705;46.228;24.812;2023-04-24T04:04:11;97072.69;;;4.78;81.17
51261;BME280;61705;46.228;24.812;2023-04-24T04:06:38;97076.72;;;4.88;80.55
51261;BME280;61705;46.228;24.812;2023-04-24T04:09:05;97079.97;;;4.96;80.08
51261;BME280;61705;46.228;24.812;2023-04-24T04:11:33;97073.63;;;5.02;80.08
51261;BME280;61705;46.228;24.812;2023-04-24T04:14:01;97079.59;;;5.07;80.01
51261;BME280;61705;46.228;24.812;2023-04-24T04:16:27;97073.53;;;5.05;80.14
51261;BME280;61705;46.228;24.812;2023-04-24T04:18:54;97079.97;;;4.96;80.52
51261;BME280;61705;46.228;24.812;2023-04-24T04:21:21;97075.84;;;4.87;81.31
51261;BME280;61705;46.228;24.812;2023-04-24T04:23:48;97068.03;;;5.12;80.60
51261;BME280;61705;46.228;24.812;2023-04-24T04:26:15;97069.91;;;5.09;80.08
51261;BME280;61705;46.228;24.812;2023-04-24T04:28:41;97070.00;;;5.06;80.14
51261;BME280;61705;46.228;24.812;2023-04-24T04:31:08;97071.56;;;5.11;80.38
51261;BME280;61705;46.228;24.812;2023-04-24T04:33:35;97064.75;;;5.07;80.31
51261;BME280;61705;46.228;24.812;2023-04-24T04:36:04;97072.44;;;5.12;80.32
51261;BME280;61705;46.228;24.812;2023-04-24T04:38:31;97075.50;;;5.25;80.08
51261;BME280;61705;46.228;24.812;2023-04-24T04:40:58;97072.72;;;5.29;79.70
51261;BME280;61705;46.228;24.812;2023-04-24T04:43:25;97064.72;;;5.34;79.69
51261;BME280;61705;46.228;24.812;2023-04-24T04:45:52;97073.78;;;5.23;79.67
51261;BME280;61705;46.228;24.812;2023-04-24T04:48:18;97069.25;;;5.29;79.93
51261;BME280;61705;46.228;24.812;2023-04-24T04:50:45;97064.72;;;5.34;79.77
51261;BME280;61705;46.228;24.812;2023-04-24T04:53:12;97068.94;;;5.38;79.78
51261;BME280;61705;46.228;24.812;2023-04-24T04:55:39;97072.19;;;5.44;79.58
51261;BME280;61705;46.228;24.812;2023-04-24T04:58:06;97064.16;;;5.49;79.35
51261;BME280;61705;46.228;24.812;2023-04-24T05:00:32;97069.41;;;5.49;79.30
51261;BME280;61705;46.228;24.812;2023-04-24T05:03:02;97065.88;;;5.50;79.41
51261;BME280;61705;46.228;24.812;2023-04-24T05:05:45;97067.44;;;5.56;79.54
51261;BME280;61705;46.228;24.812;2023-04-24T05:08:12;97063.50;;;5.67;79.26
51261;BME280;61705;46.228;24.812;2023-04-24T05:10:53;97061.00;;;5.88;78.90
51261;BME280;61705;46.228;24.812;2023-04-24T05:13:19;97052.41;;;6.09;78.14
51261;BME280;61705;46.228;24.812;2023-04-24T05:16:01;97049.06;;;6.28;77.57
51261;BME280;61705;46.228;24.812;2023-04-24T05:18:28;97051.81;;;6.25;77.30
51261;BME280;61705;46.228;24.812;2023-04-24T05:20:54;97051.56;;;6.31;77.34
51261;BME280;61705;46.228;24.812;2023-04-24T05:23:22;97044.97;;;6.43;76.86
51261;BME280;61705;46.228;24.812;2023-04-24T05:25:48;97041.28;;;6.48;76.98
51261;BME280;61705;46.228;24.812;2023-04-24T05:28:15;97043.31;;;6.63;76.69
51261;BME280;61705;46.228;24.812;2023-04-24T05:30:42;97036.44;;;6.81;76.13
51261;BME280;61705;46.228;24.812;2023-04-24T05:33:08;97040.44;;;6.90;75.88
51261;BME280;61705;46.228;24.812;2023-04-24T05:35:36;97044.84;;;7.11;75.37
51261;BME280;61705;46.228;24.812;2023-04-24T05:38:03;97039.72;;;7.29;74.90
51261;BME280;61705;46.228;24.812;2023-04-24T05:40:29;97035.06;;;7.35;74.55
51261;BME280;61705;46.228;24.812;2023-04-24T05:42:56;97040.00;;;7.62;74.08
51261;BME280;61705;46.228;24.812;2023-04-24T05:45:23;97039.34;;;7.77;73.60
51261;BME280;61705;46.228;24.812;2023-04-24T05:47:52;97035.31;;;7.89;73.44
51261;BME280;61705;46.228;24.812;2023-04-24T05:50:19;97033.34;;;7.94;73.45
51261;BME280;61705;46.228;24.812;2023-04-24T05:52:46;97030.00;;;7.91;73.25
51261;BME280;61705;46.228;24.812;2023-04-24T05:55:13;97035.13;;;7.94;73.40
51261;BME280;61705;46.228;24.812;2023-04-24T05:57:39;97033.56;;;8.08;73.48
51261;BME280;61705;46.228;24.812;2023-04-24T06:00:07;97031.97;;;8.23;72.95
51261;BME280;61705;46.228;24.812;2023-04-24T06:02:34;97026.81;;;8.41;72.55
51261;BME280;61705;46.228;24.812;2023-04-24T06:05:01;97028.94;;;8.32;72.42
51261;BME280;61705;46.228;24.812;2023-04-24T06:07:28;97024.59;;;8.31;72.70
51261;BME280;61705;46.228;24.812;2023-04-24T06:09:55;97026.88;;;8.39;72.68
51261;BME280;61705;46.228;24.812;2023-04-24T06:12:23;97030.00;;;8.47;72.37
51261;BME280;61705;46.228;24.812;2023-04-24T06:14:49;97021.69;;;8.57;72.27
51261;BME280;61705;46.228;24.812;2023-04-24T06:17:16;97023.34;;;8.76;72.16
51261;BME280;61705;46.228;24.812;2023-04-24T06:19:43;97021.53;;;8.96;71.83
51261;BME280;61705;46.228;24.812;2023-04-24T06:22:10;97014.06;;;9.04;71.72
51261;BME280;61705;46.228;24.812;2023-04-24T06:24:37;97018.41;;;9.05;71.41
51261;BME280;61705;46.228;24.812;2023-04-24T06:27:03;97024.63;;;9.21;71.09
51261;BME280;61705;46.228;24.812;2023-04-24T06:29:30;97022.84;;;9.22;71.26
51261;BME280;61705;46.228;24.812;2023-04-24T06:31:57;97021.13;;;9.38;71.25
51261;BME280;61705;46.228;24.812;2023-04-24T06:34:24;97022.47;;;9.47;70.67
51261;BME280;61705;46.228;24.812;2023-04-24T06:36:50;97012.19;;;9.58;70.61
51261;BME280;61705;46.228;24.812;2023-04-24T06:39:17;97010.84;;;9.67;70.22
51261;BME280;61705;46.228;24.812;2023-04-24T06:41:44;97009.44;;;9.77;69.90
51261;BME280;61705;46.228;24.812;2023-04-24T06:44:12;97012.91;;;9.95;69.96
51261;BME280;61705;46.228;24.812;2023-04-24T06:46:41;97007.78;;;10.08;69.40
51261;BME280;61705;46.228;24.812;2023-04-24T06:49:08;97007.13;;;10.20;69.16
51261;BME280;61705;46.228;24.812;2023-04-24T06:51:34;97001.38;;;10.29;68.90
51261;BME280;61705;46.228;24.812;2023-04-24T06:54:01;97000.06;;;10.52;68.30
51261;BME280;61705;46.228;24.812;2023-04-24T06:56:28;96997.34;;;10.70;67.86
51261;BME280;61705;46.228;24.812;2023-04-24T06:58:57;96992.47;;;10.78;67.65
51261;BME280;61705;46.228;24.812;2023-04-24T07:01:27;96980.00;;;10.96;67.04
51261;BME280;61705;46.228;24.812;2023-04-24T07:03:54;96989.94;;;11.06;66.50
51261;BME280;61705;46.228;24.812;2023-04-24T07:06:21;96987.78;;;11.13;65.91
51261;BME280;61705;46.228;24.812;2023-04-24T07:08:49;96976.38;;;11.27;65.22
51261;BME280;61705;46.228;24.812;2023-04-24T07:11:15;96974.72;;;11.40;64.98
51261;BME280;61705;46.228;24.812;2023-04-24T07:13:42;96969.91;;;11.61;64.16
51261;BME280;61705;46.228;24.812;2023-04-24T07:16:08;96966.22;;;11.78;64.07
51261;BME280;61705;46.228;24.812;2023-04-24T07:18:36;96968.34;;;11.87;63.54
51261;BME280;61705;46.228;24.812;2023-04-24T07:21:03;96968.81;;;12.08;63.07
51261;BME280;61705;46.228;24.812;2023-04-24T07:23:32;96968.22;;;12.17;61.82
51261;BME280;61705;46.228;24.812;2023-04-24T07:25:59;96963.38;;;12.38;61.66
51261;BME280;61705;46.228;24.812;2023-04-24T07:28:26;96972.13;;;12.53;60.97
51261;BME280;61705;46.228;24.812;2023-04-24T07:30:52;96964.63;;;12.60;61.02
51261;BME280;61705;46.228;24.812;2023-04-24T07:33:20;96959.84;;;12.92;59.67
51261;BME280;61705;46.228;24.812;2023-04-24T07:35:47;96958.53;;;12.85;58.67
51261;BME280;61705;46.228;24.812;2023-04-24T07:38:14;96955.94;;;12.97;58.95
51261;BME280;61705;46.228;24.812;2023-04-24T07:40:41;96956.06;;;12.96;58.89
51261;BME280;61705;46.228;24.812;2023-04-24T07:43:08;96953.72;;;13.04;57.34
51261;BME280;61705;46.228;24.812;2023-04-24T07:45:35;96949.81;;;13.22;57.73
51261;BME280;61705;46.228;24.812;2023-04-24T07:48:04;96943.59;;;13.36;56.54
51261;BME280;61705;46.228;24.812;2023-04-24T07:50:31;96945.22;;;13.39;56.15
51261;BME280;61705;46.228;24.812;2023-04-24T07:52:59;96938.72;;;13.43;56.51
51261;BME280;61705;46.228;24.812;2023-04-24T07:55:26;96942.03;;;13.59;56.34
51261;BME280;61705;46.228;24.812;2023-04-24T07:57:53;96940.22;;;13.72;55.59
51261;BME280;61705;46.228;24.812;2023-04-24T08:00:20;96938.75;;;13.81;55.76
51261;BME280;61705;46.228;24.812;2023-04-24T08:02:47;96935.63;;;14.00;55.26
51261;BME280;61705;46.228;24.812;2023-04-24T08:05:14;96932.97;;;13.87;55.14
51261;BME280;61705;46.228;24.812;2023-04-24T08:07:41;96927.56;;;13.89;54.73
51261;BME280;61705;46.228;24.812;2023-04-24T08:10:12;96928.19;;;14.05;54.60
51261;BME280;61705;46.228;24.812;2023-04-24T08:12:38;96929.25;;;14.03;54.44
51261;BME280;61705;46.228;24.812;2023-04-24T08:15:05;96930.69;;;14.19;54.16
51261;BME280;61705;46.228;24.812;2023-04-24T08:17:32;96924.00;;;14.14;53.73
51261;BME280;61705;46.228;24.812;2023-04-24T08:19:58;96928.91;;;13.94;54.14
51261;BME280;61705;46.228;24.812;2023-04-24T08:22:28;96925.00;;;14.00;53.38
51261;BME280;61705;46.228;24.812;2023-04-24T08:24:54;96917.09;;;14.11;53.24
51261;BME280;61705;46.228;24.812;2023-04-24T08:27:22;96910.34;;;14.31;52.64
51261;BME280;61705;46.228;24.812;2023-04-24T08:29:49;96905.19;;;14.54;50.10
51261;BME280;61705;46.228;24.812;2023-04-24T08:32:16;96903.78;;;14.61;50.25
51261;BME280;61705;46.228;24.812;2023-04-24T08:34:43;96895.19;;;14.57;49.11
51261;BME280;61705;46.228;24.812;2023-04-24T08:37:09;96895.44;;;14.65;48.92
51261;BME280;61705;46.228;24.812;2023-04-24T08:39:36;96888.69;;;14.73;48.86
51261;BME280;61705;46.228;24.812;2023-04-24T08:42:04;96891.84;;;15.02;48.67
51261;BME280;61705;46.228;24.812;2023-04-24T08:44:34;96889.97;;;15.26;48.37
51261;BME280;61705;46.228;24.812;2023-04-24T08:47:02;96885.84;;;15.22;48.46
51261;BME280;61705;46.228;24.812;2023-04-24T08:49:29;96883.56;;;15.51;47.90
51261;BME280;61705;46.228;24.812;2023-04-24T08:51:55;96889.63;;;15.42;47.28
51261;BME280;61705;46.228;24.812;2023-04-24T08:54:22;96881.66;;;15.42;47.38
51261;BME280;61705;46.228;24.812;2023-04-24T08:56:49;96868.56;;;15.50;45.00
51261;BME280;61705;46.228;24.812;2023-04-24T08:59:16;96870.38;;;15.50;44.66
51261;BME280;61705;46.228;24.812;2023-04-24T09:01:45;96863.47;;;15.47;44.43
51261;BME280;61705;46.228;24.812;2023-04-24T09:04:17;96857.31;;;15.58;44.22
51261;BME280;61705;46.228;24.812;2023-04-24T09:06:48;96867.03;;;15.81;44.23
51261;BME280;61705;46.228;24.812;2023-04-24T09:09:17;96854.50;;;16.16;44.38
51261;BME280;61705;46.228;24.812;2023-04-24T09:11:45;96852.13;;;16.33;43.63
51261;BME280;61705;46.228;24.812;2023-04-24T09:14:12;96845.47;;;16.39;42.73
51261;BME280;61705;46.228;24.812;2023-04-24T09:16:39;96848.38;;;16.36;42.69
51261;BME280;61705;46.228;24.812;2023-04-24T09:19:06;96839.84;;;16.21;42.43
51261;BME280;61705;46.228;24.812;2023-04-24T09:21:33;96849.38;;;16.35;41.50
51261;BME280;61705;46.228;24.812;2023-04-24T09:24:03;96840.09;;;16.50;41.55
51261;BME280;61705;46.228;24.812;2023-04-24T09:26:36;96838.34;;;16.61;41.62
51261;BME280;61705;46.228;24.812;2023-04-24T09:29:03;96829.09;;;16.76;41.87
51261;BME280;61705;46.228;24.812;2023-04-24T09:31:31;96830.59;;;17.11;41.10
51261;BME280;61705;46.228;24.812;2023-04-24T09:36:45;96827.78;;;17.12;41.02
51261;BME280;61705;46.228;24.812;2023-04-24T09:39:13;96826.50;;;17.07;40.63
51261;BME280;61705;46.228;24.812;2023-04-24T09:41:52;96819.63;;;16.83;40.50
51261;BME280;61705;46.228;24.812;2023-04-24T09:44:19;96814.00;;;16.86;40.93
51261;BME280;61705;46.228;24.812;2023-04-24T09:46:57;96818.63;;;17.05;39.71
51261;BME280;61705;46.228;24.812;2023-04-24T09:51:50;96809.06;;;17.33;39.08
51261;BME280;61705;46.228;24.812;2023-04-24T09:54:18;96812.31;;;17.58;39.12
51261;BME280;61705;46.228;24.812;2023-04-24T09:56:48;96801.09;;;17.73;38.63
51261;BME280;61705;46.228;24.812;2023-04-24T09:59:15;96810.56;;;17.77;38.42
51261;BME280;61705;46.228;24.812;2023-04-24T10:01:44;96778.56;;;18.07;38.24
51261;BME280;61705;46.228;24.812;2023-04-24T10:04:27;96789.13;;;18.28;37.16
51261;BME280;61705;46.228;24.812;2023-04-24T10:06:56;96792.63;;;18.18;37.03
51261;BME280;61705;46.228;24.812;2023-04-24T10:09:25;96787.13;;;18.00;37.70
51261;BME280;61705;46.228;24.812;2023-04-24T10:11:53;96785.28;;;17.82;38.23
51261;BME280;61705;46.228;24.812;2023-04-24T10:14:21;96782.47;;;17.93;38.41
51261;BME280;61705;46.228;24.812;2023-04-24T10:16:48;96785.38;;;17.80;37.42
51261;BME280;61705;46.228;24.812;2023-04-24T10:19:15;96783.22;;;17.64;37.45
51261;BME280;61705;46.228;24.812;2023-04-24T10:21:42;96777.41;;;17.90;37.08
51261;BME280;61705;46.228;24.812;2023-04-24T10:24:15;96779.81;;;18.03;36.81
51261;BME280;61705;46.228;24.812;2023-04-24T10:26:43;96775.63;;;18.19;36.64
51261;BME280;61705;46.228;24.812;2023-04-24T10:29:10;96771.50;;;17.96;36.88
51261;BME280;61705;46.228;24.812;2023-04-24T10:31:38;96761.69;;;18.16;36.90
51261;BME280;61705;46.228;24.812;2023-04-24T10:34:05;96762.13;;;18.60;36.08
51261;BME280;61705;46.228;24.812;2023-04-24T10:36:34;96755.94;;;18.50;35.59
51261;BME280;61705;46.228;24.812;2023-04-24T10:39:02;96748.97;;;18.66;34.56
51261;BME280;61705;46.228;24.812;2023-04-24T10:41:29;96748.88;;;18.19;35.64
51261;BME280;61705;46.228;24.812;2023-04-24T10:44:06;96750.53;;;18.59;36.26
51261;BME280;61705;46.228;24.812;2023-04-24T10:46:33;96742.13;;;18.64;35.78
51261;BME280;61705;46.228;24.812;2023-04-24T10:49:03;96740.72;;;18.21;36.36
51261;BME280;61705;46.228;24.812;2023-04-24T10:51:50;96751.13;;;18.14;36.51
51261;BME280;61705;46.228;24.812;2023-04-24T10:54:24;96745.94;;;18.13;36.33
51261;BME280;61705;46.228;24.812;2023-04-24T10:56:51;96739.03;;;18.20;36.59
51261;BME280;61705;46.228;24.812;2023-04-24T10:59:26;96745.50;;;18.27;36.11
51261;BME280;61705;46.228;24.812;2023-04-24T11:01:54;96741.84;;;18.57;35.73
51261;BME280;61705;46.228;24.812;2023-04-24T11:04:31;96737.72;;;18.92;34.75
51261;BME280;61705;46.228;24.812;2023-04-24T11:06:58;96735.28;;;19.08;34.57
51261;BME280;61705;46.228;24.812;2023-04-24T11:09:30;96728.94;;;19.09;34.52
51261;BME280;61705;46.228;24.812;2023-04-24T11:12:05;96734.78;;;18.85;34.59
51261;BME280;61705;46.228;24.812;2023-04-24T11:17:38;96732.38;;;18.82;33.57
51261;BME280;61705;46.228;24.812;2023-04-24T11:20:17;96731.69;;;19.27;33.60
51261;BME280;61705;46.228;24.812;2023-04-24T11:22:52;96723.91;;;19.61;32.43
51261;BME280;61705;46.228;24.812;2023-04-24T11:25:21;96719.94;;;19.65;32.87
51261;BME280;61705;46.228;24.812;2023-04-24T11:27:49;96718.47;;;20.17;32.36
51261;BME280;61705;46.228;24.812;2023-04-24T11:30:18;96714.72;;;19.92;32.62
51261;BME280;61705;46.228;24.812;2023-04-24T11:32:50;96715.22;;;19.50;33.22
51261;BME280;61705;46.228;24.812;2023-04-24T11:35:20;96715.78;;;19.16;33.44
51261;BME280;61705;46.228;24.812;2023-04-24T11:37:55;96714.69;;;19.09;33.82
51261;BME280;61705;46.228;24.812;2023-04-24T11:40:24;96713.66;;;19.20;33.65
51261;BME280;61705;46.228;24.812;2023-04-24T11:42:53;96717.53;;;19.35;33.52
51261;BME280;61705;46.228;24.812;2023-04-24T11:45:25;96714.19;;;19.33;33.39
51261;BME280;61705;46.228;24.812;2023-04-24T11:47:52;96718.81;;;19.31;33.01
51261;BME280;61705;46.228;24.812;2023-04-24T11:50:23;96710.47;;;19.44;33.32
51261;BME280;61705;46.228;24.812;2023-04-24T11:52:50;96696.78;;;19.92;33.00
51261;BME280;61705;46.228;24.812;2023-04-24T11:57:50;96693.50;;;19.98;32.40
51261;BME280;61705;46.228;24.812;2023-04-24T12:00:19;96695.41;;;20.06;31.62
51261;BME280;61705;46.228;24.812;2023-04-24T12:02:47;96690.16;;;19.69;31.64
51261;BME280;61705;46.228;24.812;2023-04-24T12:05:26;96686.38;;;19.89;30.24
51261;BME280;61705;46.228;24.812;2023-04-24T12:07:55;96682.84;;;20.06;30.32
51261;BME280;61705;46.228;24.812;2023-04-24T12:10:24;96685.53;;;20.24;30.04
51261;BME280;61705;46.228;24.812;2023-04-24T12:12:51;96681.94;;;20.51;29.60
51261;BME280;61705;46.228;24.812;2023-04-24T12:15:20;96681.44;;;21.08;29.32
51261;BME280;61705;46.228;24.812;2023-04-24T12:17:47;96674.75;;;21.12;28.63
51261;BME280;61705;46.228;24.812;2023-04-24T12:20:14;96679.78;;;21.07;28.67
51261;BME280;61705;46.228;24.812;2023-04-24T12:22:52;96668.56;;;20.59;28.88
51261;BME280;61705;46.228;24.812;2023-04-24T12:25:25;96662.75;;;20.28;29.20
51261;BME280;61705;46.228;24.812;2023-04-24T12:27:54;96655.47;;;20.56;29.41
51261;BME280;61705;46.228;24.812;2023-04-24T12:30:27;96651.34;;;20.70;29.32
51261;BME280;61705;46.228;24.812;2023-04-24T12:32:58;96640.34;;;20.81;29.28
51261;BME280;61705;46.228;24.812;2023-04-24T12:35:28;96649.72;;;21.03;29.22
51261;BME280;61705;46.228;24.812;2023-04-24T12:37:56;96649.63;;;21.21;28.84
51261;BME280;61705;46.228;24.812;2023-04-24T12:40:31;96635.47;;;21.11;28.96
51261;BME280;61705;46.228;24.812;2023-04-24T12:42:58;96630.97;;;21.20;29.35
51261;BME280;61705;46.228;24.812;2023-04-24T12:45:25;96635.22;;;21.30;29.16
51261;BME280;61705;46.228;24.812;2023-04-24T12:47:51;96637.72;;;21.32;28.74
51261;BME280;61705;46.228;24.812;2023-04-24T12:50:18;96629.47;;;21.68;28.64
51261;BME280;61705;46.228;24.812;2023-04-24T12:52:45;96633.97;;;21.59;28.68
51261;BME280;61705;46.228;24.812;2023-04-24T12:55:12;96624.91;;;21.52;28.89
51261;BME280;61705;46.228;24.812;2023-04-24T12:57:39;96621.28;;;22.10;28.40
51261;BME280;61705;46.228;24.812;2023-04-24T13:00:07;96626.28;;;21.72;28.68
51261;BME280;61705;46.228;24.812;2023-04-24T13:02:35;96621.00;;;21.04;29.59
51261;BME280;61705;46.228;24.812;2023-04-24T13:05:02;96630.09;;;20.77;29.77
51261;BME280;61705;46.228;24.812;2023-04-24T13:07:31;96620.31;;;20.50;30.37
51261;BME280;61705;46.228;24.812;2023-04-24T13:09:57;96618.72;;;20.57;30.30